Time;durP1;ratioP1;P1;durP2;ratioP2;P2;SDS_P1;SDS_P2;PMS_P1;PMS_P2;Temp;Humidity;BMP_temperature;BMP_pressure;BME280_temperature;BME280_humidity;BME280_pressure;Samples;Min_cycle;Max_cycle;Signal;HPM_P1;HPM_P2
2023/07/13 00:00:28;;;;;;;0.20;0.20;;;17.60;99.90;;;;;;5030776;28;20037;-76
2023/07/13 00:02:54;;;;;;;0.20;0.20;;;17.60;99.90;;;;;;5031784;28;20045;-76
2023/07/13 00:05:23;;;;;;;0.10;0.10;;;17.50;99.90;;;;;;5032287;28;20083;-76
2023/07/13 00:07:51;;;;;;;0.20;0.20;;;17.50;99.90;;;;;;5032255;28;20052;-77
2023/07/13 00:10:18;;;;;;;0.10;0.10;;;17.50;99.90;;;;;;5050967;28;20052;-75
2023/07/13 00:12:44;;;;;;;0.20;0.20;;;17.50;99.90;;;;;;5049383;28;20033;-76
2023/07/13 00:15:22;;;;;;;0.17;0.17;;;17.50;99.90;;;;;;5023483;28;20072;-76
2023/07/13 00:17:55;;;;;;;0.10;0.10;;;17.50;99.90;;;;;;5032372;28;20385;-76
2023/07/13 00:20:24;;;;;;;0.20;0.20;;;17.50;99.90;;;;;;5029015;28;20037;-76
2023/07/13 00:22:53;;;;;;;0.20;0.20;;;17.50;99.90;;;;;;5030107;28;20033;-76
2023/07/13 00:25:19;;;;;;;0.20;0.20;;;17.50;99.90;;;;;;5030212;28;20078;-76
2023/07/13 00:27:48;;;;;;;0.20;0.20;;;17.50;99.90;;;;;;5022792;28;20090;-76
2023/07/13 00:30:15;;;;;;;0.20;0.20;;;17.50;99.90;;;;;;5045083;28;20037;-77
2023/07/13 00:32:40;;;;;;;0.20;0.20;;;17.40;99.90;;;;;;5038519;28;20064;-77
2023/07/13 00:35:07;;;;;;;0.20;0.20;;;17.50;99.90;;;;;;5046196;28;20052;-76
2023/07/13 00:37:35;;;;;;;0.20;0.20;;;17.50;99.90;;;;;;5047901;28;20048;-76
2023/07/13 00:40:02;;;;;;;0.28;0.28;;;17.50;99.90;;;;;;5048256;28;20416;-76
2023/07/13 00:42:28;;;;;;;0.20;0.20;;;17.50;99.90;;;;;;5044496;28;20037;-76
2023/07/13 00:45:23;;;;;;;0.20;0.20;;;17.40;99.90;;;;;;5046076;28;20098;-76
2023/07/13 00:47:49;;;;;;;0.20;0.20;;;17.40;99.90;;;;;;5045431;28;20055;-76
2023/07/13 00:50:17;;;;;;;0.20;0.20;;;17.40;99.90;;;;;;5046713;28;20041;-75
2023/07/13 00:52:47;;;;;;;0.20;0.20;;;17.40;99.90;;;;;;5046398;28;20055;-74
2023/07/13 00:55:14;;;;;;;0.20;0.20;;;17.40;99.90;;;;;;5045901;28;20170;-76
2023/07/13 00:57:41;;;;;;;0.20;0.20;;;17.40;99.90;;;;;;5036546;28;20041;-75
2023/07/13 01:00:08;;;;;;;0.20;0.20;;;17.30;99.90;;;;;;5059912;28;20124;-77
2023/07/13 01:02:37;;;;;;;0.20;0.20;;;17.40;99.90;;;;;;5043558;28;20036;-75
2023/07/13 01:05:13;;;;;;;0.20;0.20;;;17.30;99.90;;;;;;5044727;28;20067;-75
2023/07/13 01:07:41;;;;;;;0.20;0.20;;;17.30;99.90;;;;;;5044207;28;20047;-75
2023/07/13 01:10:08;;;;;;;0.20;0.20;;;17.30;99.90;;;;;;5045477;28;20045;-76
2023/07/13 01:12:34;;;;;;;0.20;0.20;;;17.30;99.90;;;;;;5045895;28;20148;-75
2023/07/13 01:15:01;;;;;;;0.20;0.20;;;17.30;99.90;;;;;;5045462;28;20037;-76
2023/07/13 01:17:28;;;;;;;0.10;0.10;;;17.30;99.90;;;;;;5046480;28;20048;-75
2023/07/13 01:19:54;;;;;;;0.10;0.10;;;17.30;99.90;;;;;;5048012;28;20040;-75
2023/07/13 01:22:25;;;;;;;0.17;0.17;;;17.30;99.90;;;;;;5044887;28;20037;-76
2023/07/13 01:24:51;;;;;;;0.20;0.20;;;17.30;99.90;;;;;;5044086;28;20040;-75
2023/07/13 01:27:23;;;;;;;0.15;0.15;;;17.30;99.90;;;;;;5046951;28;20067;-75
2023/07/13 01:29:49;;;;;;;0.10;0.10;;;17.30;99.90;;;;;;5039615;28;20052;-76
2023/07/13 01:32:23;;;;;;;0.20;0.20;;;17.30;99.90;;;;;;5046218;28;20619;-75
2023/07/13 01:34:53;;;;;;;0.20;0.20;;;17.30;99.90;;;;;;5046719;28;20041;-76
2023/07/13 01:37:20;;;;;;;0.17;0.17;;;17.20;99.90;;;;;;5043680;28;20090;-75
2023/07/13 01:39:46;;;;;;;0.10;0.10;;;17.20;99.90;;;;;;5046849;28;20416;-75
2023/07/13 01:42:13;;;;;;;0.10;0.10;;;17.20;99.90;;;;;;5038287;28;20057;-75
2023/07/13 01:44:39;;;;;;;0.10;0.10;;;17.10;99.90;;;;;;5037694;28;20049;-75
2023/07/13 01:47:05;;;;;;;0.20;0.20;;;17.10;99.90;;;;;;5046503;28;20048;-75
2023/07/13 01:49:30;;;;;;;0.10;0.10;;;17.10;99.90;;;;;;5047812;28;20041;-76
2023/07/13 01:51:56;;;;;;;0.20;0.20;;;17.10;99.90;;;;;;5041858;28;20564;-75
2023/07/13 01:54:22;;;;;;;0.20;0.20;;;17.10;99.90;;;;;;5047143;28;20051;-75
2023/07/13 01:56:48;;;;;;;0.15;0.15;;;17.10;99.90;;;;;;5044382;28;20049;-75
2023/07/13 01:59:14;;;;;;;0.20;0.20;;;17.00;99.90;;;;;;5044216;28;20049;-75
2023/07/13 02:01:40;;;;;;;0.20;0.20;;;17.00;99.90;;;;;;5045719;28;20433;-75
2023/07/13 02:04:06;;;;;;;0.20;0.20;;;17.00;99.90;;;;;;5043982;28;20049;-76
2023/07/13 02:06:31;;;;;;;0.20;0.20;;;17.00;99.90;;;;;;5045714;28;20065;-76
2023/07/13 02:08:58;;;;;;;0.10;0.10;;;17.00;99.90;;;;;;5043806;28;20111;-75
2023/07/13 02:11:24;;;;;;;0.20;0.20;;;17.00;99.90;;;;;;5045689;28;20106;-75
2023/07/13 02:13:54;;;;;;;0.20;0.20;;;17.00;99.90;;;;;;5044180;28;20122;-76
2023/07/13 02:16:19;;;;;;;0.20;0.20;;;17.00;99.90;;;;;;5045570;28;20501;-75
2023/07/13 02:18:45;;;;;;;0.20;0.20;;;17.00;99.90;;;;;;5044360;28;20488;-75
2023/07/13 02:21:11;;;;;;;0.20;0.20;;;17.00;99.90;;;;;;5046000;28;20053;-75
2023/07/13 02:23:36;;;;;;;0.20;0.20;;;16.90;99.90;;;;;;5043913;28;20086;-76
2023/07/13 02:26:03;;;;;;;0.20;0.20;;;17.00;99.90;;;;;;5046471;28;20033;-76
2023/07/13 02:28:29;;;;;;;0.10;0.10;;;17.00;99.90;;;;;;5048082;28;20117;-75
2023/07/13 02:31:03;;;;;;;0.20;0.20;;;17.00;99.90;;;;;;5051415;28;20045;-75
2023/07/13 02:33:29;;;;;;;0.20;0.20;;;16.90;99.90;;;;;;5050932;28;20053;-75
2023/07/13 02:35:55;;;;;;;0.20;0.20;;;16.90;99.90;;;;;;5049630;28;20043;-76
2023/07/13 02:38:21;;;;;;;0.10;0.10;;;16.90;99.90;;;;;;5049608;28;20044;-76
2023/07/13 02:40:46;;;;;;;0.20;0.20;;;16.90;99.90;;;;;;5049756;28;20063;-76
2023/07/13 02:43:12;;;;;;;0.20;0.20;;;16.90;99.90;;;;;;5046796;28;20033;-76
2023/07/13 02:45:43;;;;;;;0.20;0.20;;;16.90;99.90;;;;;;5051853;28;20041;-76
2023/07/13 02:48:08;;;;;;;0.20;0.20;;;16.90;99.90;;;;;;5048857;28;20045;-76
2023/07/13 02:50:35;;;;;;;0.13;0.13;;;16.80;99.90;;;;;;5049333;28;20057;-76
2023/07/13 02:53:01;;;;;;;0.10;0.10;;;16.80;99.90;;;;;;5052085;28;20422;-76
2023/07/13 02:55:27;;;;;;;0.10;0.10;;;16.80;99.90;;;;;;5050301;28;20033;-75
2023/07/13 02:57:54;;;;;;;0.20;0.20;;;16.80;99.90;;;;;;5049723;28;20089;-76
2023/07/13 03:00:20;;;;;;;0.10;0.10;;;16.80;99.90;;;;;;5042311;28;20056;-76
2023/07/13 03:02:45;;;;;;;0.20;0.20;;;16.70;99.90;;;;;;5049729;28;20045;-76
2023/07/13 03:05:12;;;;;;;0.20;0.20;;;16.70;99.90;;;;;;5049429;28;20041;-76
2023/07/13 03:07:39;;;;;;;0.10;0.10;;;16.70;99.90;;;;;;5049250;28;20477;-76
2023/07/13 03:10:06;;;;;;;0.10;0.10;;;16.70;99.90;;;;;;5047597;28;20049;-76
2023/07/13 03:12:35;;;;;;;0.20;0.20;;;16.70;99.90;;;;;;5049405;28;20440;-76
2023/07/13 03:15:00;;;;;;;0.13;0.13;;;16.70;99.90;;;;;;5048925;28;20091;-76
2023/07/13 03:17:26;;;;;;;0.10;0.10;;;16.70;99.90;;;;;;5050308;28;20222;-77
2023/07/13 03:19:52;;;;;;;0.20;0.20;;;16.60;99.90;;;;;;5047182;28;20044;-76
2023/07/13 03:22:21;;;;;;;0.10;0.10;;;16.70;99.90;;;;;;5048548;28;20069;-76
2023/07/13 03:24:48;;;;;;;0.20;0.20;;;16.60;99.90;;;;;;5048326;28;20531;-75
2023/07/13 03:27:15;;;;;;;0.20;0.20;;;16.60;99.90;;;;;;5050583;28;20567;-78
2023/07/13 03:29:41;;;;;;;0.20;0.20;;;16.60;99.90;;;;;;5046979;28;20479;-76
2023/07/13 03:32:07;;;;;;;0.20;0.20;;;16.60;99.90;;;;;;5047773;28;20076;-76
2023/07/13 03:34:33;;;;;;;0.10;0.10;;;16.60;99.90;;;;;;5048692;28;20045;-76
2023/07/13 03:36:58;;;;;;;0.13;0.13;;;16.60;99.90;;;;;;5045637;28;20596;-75
2023/07/13 03:39:24;;;;;;;0.20;0.20;;;16.60;99.90;;;;;;5028304;28;20524;-75
2023/07/13 03:41:50;;;;;;;0.20;0.20;;;16.70;99.90;;;;;;5048934;28;20106;-75
2023/07/13 03:44:18;;;;;;;0.13;0.13;;;16.60;99.90;;;;;;5031424;28;20037;-75
2023/07/13 03:46:44;;;;;;;0.17;0.17;;;16.70;99.90;;;;;;5032939;28;20557;-76
2023/07/13 03:49:10;;;;;;;0.20;0.20;;;16.70;99.90;;;;;;5033364;28;20127;-75
2023/07/13 03:51:36;;;;;;;0.13;0.13;;;16.60;99.90;;;;;;5033001;28;20045;-76
2023/07/13 03:54:03;;;;;;;0.20;0.20;;;16.70;99.90;;;;;;5032537;28;20903;-75
2023/07/13 03:56:30;;;;;;;0.20;0.20;;;16.70;99.90;;;;;;5032734;28;20033;-75
2023/07/13 03:58:57;;;;;;;0.10;0.10;;;16.70;99.90;;;;;;5046191;28;20660;-76
2023/07/13 04:01:24;;;;;;;0.10;0.10;;;16.70;99.90;;;;;;5047703;28;20112;-76
2023/07/13 04:03:51;;;;;;;0.10;0.10;;;16.70;99.90;;;;;;5026829;28;20041;-75
2023/07/13 04:06:23;;;;;;;0.13;0.13;;;16.80;99.90;;;;;;5029916;28;20069;-76
2023/07/13 04:08:55;;;;;;;0.20;0.20;;;16.70;99.90;;;;;;5048140;28;20456;-75
2023/07/13 04:11:24;;;;;;;0.17;0.17;;;16.70;99.90;;;;;;5045538;28;20045;-76
2023/07/13 04:13:50;;;;;;;0.10;0.10;;;16.70;99.90;;;;;;5031179;28;20051;-75
2023/07/13 04:16:18;;;;;;;0.13;0.13;;;16.70;99.90;;;;;;5032512;28;20465;-77
2023/07/13 04:18:44;;;;;;;0.10;0.10;;;16.70;99.90;;;;;;5049505;28;20510;-76
2023/07/13 04:21:10;;;;;;;0.20;0.20;;;16.70;99.90;;;;;;5050090;28;20049;-76
2023/07/13 04:23:37;;;;;;;0.10;0.10;;;16.70;99.90;;;;;;5032330;28;20052;-76
2023/07/13 04:26:03;;;;;;;0.20;0.20;;;16.70;99.90;;;;;;5048156;28;20075;-76
2023/07/13 04:28:29;;;;;;;0.10;0.10;;;16.70;99.90;;;;;;5031988;28;20068;-76
2023/07/13 04:30:57;;;;;;;0.20;0.20;;;16.60;99.90;;;;;;5050072;28;20040;-77
2023/07/13 04:33:23;;;;;;;0.10;0.10;;;16.70;99.90;;;;;;5047429;28;20143;-75
2023/07/13 04:35:54;;;;;;;0.20;0.20;;;16.60;99.90;;;;;;5047275;28;20124;-75
2023/07/13 04:38:20;;;;;;;0.20;0.20;;;16.70;99.90;;;;;;5050089;28;20045;-75
2023/07/13 04:40:47;;;;;;;0.15;0.15;;;16.70;99.90;;;;;;5046454;28;20086;-75
2023/07/13 04:43:13;;;;;;;0.20;0.20;;;16.70;99.90;;;;;;5042767;28;20044;-75
2023/07/13 04:45:38;;;;;;;0.20;0.20;;;16.70;99.90;;;;;;5044706;28;20124;-75
2023/07/13 04:48:04;;;;;;;0.10;0.10;;;16.70;99.90;;;;;;5044487;28;20060;-76
2023/07/13 04:50:30;;;;;;;0.20;0.20;;;16.70;99.90;;;;;;5044351;28;20098;-77
2023/07/13 04:52:56;;;;;;;0.17;0.17;;;16.70;99.90;;;;;;5046650;28;21791;-75
2023/07/13 04:55:22;;;;;;;0.15;0.15;;;16.70;99.90;;;;;;5047516;28;20599;-75
2023/07/13 04:57:48;;;;;;;0.10;0.10;;;16.70;99.90;;;;;;5046336;28;20037;-76
2023/07/13 05:00:15;;;;;;;0.20;0.20;;;16.70;99.90;;;;;;5045889;28;20048;-75
2023/07/13 05:02:44;;;;;;;0.10;0.10;;;16.70;99.90;;;;;;5044912;28;20037;-76
2023/07/13 05:05:09;;;;;;;0.15;0.15;;;16.70;99.90;;;;;;5049563;28;20041;-76
2023/07/13 05:07:35;;;;;;;0.10;0.10;;;16.80;99.90;;;;;;5041487;28;20667;-75
2023/07/13 05:10:03;;;;;;;0.10;0.10;;;16.80;99.90;;;;;;5046725;28;20103;-75
2023/07/13 05:12:30;;;;;;;0.10;0.10;;;16.80;99.90;;;;;;5046326;28;20131;-76
2023/07/13 05:14:55;;;;;;;0.20;0.20;;;16.80;99.90;;;;;;5045104;28;20048;-75
2023/07/13 05:17:21;;;;;;;0.20;0.20;;;16.80;99.90;;;;;;5047556;28;20053;-75
2023/07/13 05:19:47;;;;;;;0.20;0.20;;;16.80;99.90;;;;;;5048297;28;20502;-76
2023/07/13 05:22:13;;;;;;;0.20;0.20;;;16.90;99.90;;;;;;5049464;28;20624;-75
2023/07/13 05:24:38;;;;;;;0.20;0.20;;;16.90;99.90;;;;;;5048662;28;20480;-76
2023/07/13 05:27:05;;;;;;;0.20;0.20;;;16.90;99.90;;;;;;5045838;28;20052;-76
2023/07/13 05:29:30;;;;;;;0.10;0.10;;;17.00;99.90;;;;;;5046292;28;20492;-76
2023/07/13 05:31:56;;;;;;;0.10;0.10;;;17.00;99.90;;;;;;5043615;28;20045;-76
2023/07/13 05:34:23;;;;;;;0.10;0.10;;;17.00;99.90;;;;;;5045248;28;20048;-76
2023/07/13 05:36:49;;;;;;;0.20;0.20;;;17.10;99.90;;;;;;5046462;28;20508;-76
2023/07/13 05:39:15;;;;;;;0.17;0.17;;;17.10;99.90;;;;;;5047792;28;20049;-77
2023/07/13 05:41:41;;;;;;;0.20;0.20;;;17.10;99.90;;;;;;5048113;28;20052;-76
2023/07/13 05:44:07;;;;;;;0.20;0.20;;;17.20;99.90;;;;;;5047519;28;20120;-77
2023/07/13 05:46:33;;;;;;;0.20;0.20;;;17.30;99.90;;;;;;5046349;28;20439;-77
2023/07/13 05:48:59;;;;;;;0.20;0.20;;;17.20;99.90;;;;;;5048083;28;20040;-78
2023/07/13 05:51:25;;;;;;;0.10;0.10;;;17.30;99.90;;;;;;5048618;28;20079;-75
2023/07/13 05:53:51;;;;;;;0.20;0.20;;;17.30;99.90;;;;;;5049575;28;20468;-77
2023/07/13 05:56:16;;;;;;;0.20;0.20;;;17.40;99.90;;;;;;5047987;28;20056;-77
2023/07/13 05:58:42;;;;;;;0.20;0.20;;;17.40;99.90;;;;;;5046869;28;20479;-77
2023/07/13 06:01:14;;;;;;;0.10;0.10;;;17.50;99.90;;;;;;5041545;28;20492;-78
2023/07/13 06:03:42;;;;;;;0.20;0.20;;;17.50;99.90;;;;;;5052659;28;20045;-76
2023/07/13 06:06:10;;;;;;;0.10;0.10;;;17.60;99.90;;;;;;5045726;28;20396;-77
2023/07/13 06:08:36;;;;;;;0.20;0.20;;;17.60;99.90;;;;;;5049452;28;20053;-82
2023/07/13 06:11:13;;;;;;;0.20;0.20;;;17.70;99.90;;;;;;5046127;28;20049;-81
2023/07/13 06:13:39;;;;;;;0.20;0.20;;;17.70;99.90;;;;;;5047935;28;20107;-81
2023/07/13 06:16:05;;;;;;;0.20;0.20;;;17.80;99.90;;;;;;5049048;28;20053;-81
2023/07/13 06:18:36;;;;;;;0.17;0.17;;;17.80;99.90;;;;;;5048855;28;20047;-81
2023/07/13 06:21:09;;;;;;;0.20;0.20;;;17.90;99.90;;;;;;5049996;28;20052;-83
2023/07/13 06:23:35;;;;;;;0.20;0.20;;;17.90;99.90;;;;;;5051211;28;20366;-81
2023/07/13 06:26:01;;;;;;;0.20;0.20;;;18.00;99.90;;;;;;5050387;28;20049;-82
2023/07/13 06:28:26;;;;;;;0.10;0.10;;;18.00;99.90;;;;;;5049609;28;20507;-82
2023/07/13 06:30:52;;;;;;;0.10;0.10;;;18.00;99.90;;;;;;5050010;28;20039;-82
2023/07/13 06:33:18;;;;;;;0.10;0.10;;;18.20;99.90;;;;;;5048049;28;20057;-81
2023/07/13 06:35:43;;;;;;;0.17;0.17;;;18.20;99.90;;;;;;5051392;28;20059;-82
2023/07/13 06:38:09;;;;;;;0.10;0.10;;;18.20;99.90;;;;;;5049134;28;20077;-82
2023/07/13 06:40:35;;;;;;;0.20;0.20;;;18.30;99.90;;;;;;5052778;28;20124;-81
2023/07/13 06:43:01;;;;;;;0.20;0.20;;;18.40;99.90;;;;;;5041905;28;20045;-82
2023/07/13 06:45:26;;;;;;;0.10;0.10;;;18.40;99.90;;;;;;5050292;28;20037;-82
2023/07/13 06:47:52;;;;;;;0.20;0.20;;;18.40;99.90;;;;;;5051915;28;20488;-83
2023/07/13 06:50:18;;;;;;;0.10;0.10;;;18.50;99.90;;;;;;5050441;28;20037;-81
2023/07/13 06:52:44;;;;;;;0.20;0.20;;;18.50;99.90;;;;;;5047709;28;20036;-82
2023/07/13 06:55:09;;;;;;;0.10;0.10;;;18.50;99.90;;;;;;5047277;28;20135;-81
2023/07/13 06:57:35;;;;;;;0.10;0.10;;;18.60;99.90;;;;;;5048259;28;20407;-81
2023/07/13 07:00:01;;;;;;;0.17;0.17;;;18.60;99.90;;;;;;5050267;28;20055;-81
2023/07/13 07:02:27;;;;;;;0.30;0.30;;;18.60;99.90;;;;;;5048156;28;20037;-81
2023/07/13 07:04:54;;;;;;;0.20;0.20;;;18.70;99.90;;;;;;5049998;28;20120;-81
2023/07/13 07:07:20;;;;;;;0.17;0.17;;;18.80;99.90;;;;;;5050520;28;20052;-83
2023/07/13 07:09:45;;;;;;;0.20;0.20;;;18.90;99.90;;;;;;5048346;28;20427;-81
2023/07/13 07:12:11;;;;;;;0.20;0.20;;;18.90;99.90;;;;;;5046046;28;20044;-80
2023/07/13 07:14:37;;;;;;;0.20;0.20;;;18.90;99.90;;;;;;5045065;28;20037;-82
2023/07/13 07:17:02;;;;;;;0.20;0.20;;;18.90;99.90;;;;;;5049171;28;20049;-80
2023/07/13 07:19:30;;;;;;;0.20;0.20;;;19.00;99.90;;;;;;5047362;28;20040;-81
2023/07/13 07:21:56;;;;;;;0.10;0.10;;;19.00;99.90;;;;;;5046150;28;20167;-80
2023/07/13 07:24:21;;;;;;;0.20;0.20;;;19.10;99.90;;;;;;5049619;28;20480;-80
2023/07/13 07:26:47;;;;;;;0.20;0.20;;;19.00;99.90;;;;;;5051354;28;20043;-81
2023/07/13 07:29:13;;;;;;;0.20;0.20;;;19.10;99.90;;;;;;5046695;28;20044;-81
2023/07/13 07:31:38;;;;;;;0.17;0.17;;;19.10;99.90;;;;;;5051348;28;20153;-81
2023/07/13 07:34:04;;;;;;;0.20;0.20;;;19.00;99.90;;;;;;5030454;28;20104;-81
2023/07/13 07:36:30;;;;;;;0.10;0.10;;;19.00;99.90;;;;;;5048344;28;20044;-82
2023/07/13 07:38:55;;;;;;;0.20;0.20;;;19.00;99.90;;;;;;5030386;28;20040;-81
2023/07/13 07:41:21;;;;;;;0.20;0.20;;;19.10;99.90;;;;;;5037430;28;20052;-82
2023/07/13 07:43:47;;;;;;;0.20;0.20;;;19.20;99.90;;;;;;5020335;28;20572;-81
2023/07/13 07:46:13;;;;;;;0.10;0.10;;;19.30;99.90;;;;;;5030716;28;20040;-81
2023/07/13 07:48:38;;;;;;;0.10;0.10;;;19.30;99.90;;;;;;5030312;28;20041;-81
2023/07/13 07:51:04;;;;;;;0.20;0.20;;;19.50;99.90;;;;;;5026564;28;20033;-82
2023/07/13 07:53:30;;;;;;;0.20;0.20;;;19.40;99.90;;;;;;5031946;28;20036;-81
2023/07/13 07:55:56;;;;;;;0.20;0.20;;;19.50;99.90;;;;;;5027548;28;20052;-82
2023/07/13 07:58:22;;;;;;;0.10;0.10;;;19.50;99.90;;;;;;5021660;28;20040;-81
2023/07/13 08:00:48;;;;;;;0.20;0.20;;;19.60;99.90;;;;;;5027804;28;20030;-81
2023/07/13 08:03:13;;;;;;;0.20;0.20;;;19.60;99.90;;;;;;5046964;28;20526;-81
2023/07/13 08:05:39;;;;;;;0.10;0.10;;;19.60;99.90;;;;;;5013680;28;20048;-81
2023/07/13 08:08:05;;;;;;;0.20;0.20;;;19.60;99.90;;;;;;5030858;28;20382;-80
2023/07/13 08:10:31;;;;;;;0.15;0.15;;;19.50;99.90;;;;;;5047881;28;20041;-81
2023/07/13 08:12:56;;;;;;;0.20;0.20;;;19.50;99.90;;;;;;5024723;28;20056;-81
2023/07/13 08:15:22;;;;;;;0.10;0.10;;;19.50;99.90;;;;;;5047174;28;20515;-81
2023/07/13 08:17:49;;;;;;;0.20;0.20;;;19.50;99.90;;;;;;5031033;28;20076;-81
2023/07/13 08:20:16;;;;;;;0.10;0.10;;;19.40;99.90;;;;;;5049390;28;20123;-81
2023/07/13 08:22:42;;;;;;;0.20;0.20;;;19.40;99.90;;;;;;5047940;28;20497;-81
2023/07/13 08:25:08;;;;;;;0.20;0.20;;;19.40;99.90;;;;;;5028277;28;20047;-81
2023/07/13 08:27:34;;;;;;;0.20;0.20;;;19.40;99.90;;;;;;5024347;28;20128;-80
2023/07/13 08:29:59;;;;;;;0.20;0.20;;;19.40;99.90;;;;;;5046024;28;20093;-81
2023/07/13 08:32:25;;;;;;;0.20;0.20;;;19.40;99.90;;;;;;5049746;28;20053;-82
2023/07/13 08:34:51;;;;;;;0.20;0.20;;;19.50;99.90;;;;;;5045731;28;20052;-80
2023/07/13 08:37:18;;;;;;;0.20;0.20;;;19.50;99.90;;;;;;5049409;28;20041;-81
2023/07/13 08:39:47;;;;;;;0.20;0.20;;;19.50;99.90;;;;;;5030057;28;20072;-92
2023/07/13 08:42:18;;;;;;;0.20;0.20;;;19.50;99.90;;;;;;5048474;28;20835;-82
2023/07/13 08:45:11;;;;;;;0.30;0.30;;;19.50;99.90;;;;;;5029709;28;20102;-83
2023/07/13 08:47:40;;;;;;;0.20;0.20;;;19.50;99.90;;;;;;5041193;28;20473;-78
2023/07/13 08:50:12;;;;;;;0.20;0.20;;;19.50;99.90;;;;;;5020443;28;20054;-79
2023/07/13 08:52:43;;;;;;;0.20;0.20;;;19.50;99.90;;;;;;5025798;28;20088;-79
2023/07/13 08:55:26;;;;;;;0.20;0.20;;;19.50;99.90;;;;;;5019797;28;20405;-78
2023/07/13 08:58:02;;;;;;;0.20;0.20;;;19.50;99.90;;;;;;5037015;28;20068;-78
2023/07/13 09:00:40;;;;;;;0.20;0.20;;;19.60;99.90;;;;;;5022051;28;20073;-79
2023/07/13 09:03:20;;;;;;;0.20;0.20;;;19.70;99.90;;;;;;5045366;28;20492;-78
2023/07/13 09:05:51;;;;;;;0.20;0.20;;;19.80;99.90;;;;;;5039098;28;20080;-79
2023/07/13 09:08:26;;;;;;;0.15;0.15;;;19.90;99.90;;;;;;5027234;28;20056;-79
2023/07/13 09:11:18;;;;;;;0.17;0.17;;;20.00;99.90;;;;;;5031076;28;20049;-80
2023/07/13 09:13:53;;;;;;;0.20;0.20;;;20.00;99.90;;;;;;5021610;28;20124;-79
2023/07/13 09:16:20;;;;;;;0.20;0.20;;;20.00;99.90;;;;;;5027746;28;20044;-79
2023/07/13 09:18:50;;;;;;;0.20;0.20;;;20.00;99.90;;;;;;5047551;28;20045;-78
2023/07/13 09:21:33;;;;;;;0.20;0.20;;;20.00;99.90;;;;;;5029134;28;20400;-80
2023/07/13 09:24:24;;;;;;;0.20;0.20;;;20.00;99.90;;;;;;5024287;28;20056;-80
2023/07/13 09:26:51;;;;;;;0.20;0.20;;;19.90;99.90;;;;;;5025624;28;20437;-78
2023/07/13 09:29:28;;;;;;;0.10;0.10;;;19.90;99.90;;;;;;5026396;28;20084;-78
2023/07/13 09:31:58;;;;;;;0.20;0.20;;;19.90;99.90;;;;;;5029855;28;20102;-80
2023/07/13 09:34:25;;;;;;;0.20;0.20;;;19.90;99.90;;;;;;5041056;28;20063;-80
2023/07/13 09:36:51;;;;;;;0.20;0.20;;;20.00;99.90;;;;;;5047068;28;20074;-78
2023/07/13 09:39:20;;;;;;;0.20;0.20;;;20.10;99.90;;;;;;5028652;28;20037;-78
2023/07/13 09:41:49;;;;;;;0.20;0.20;;;20.10;99.90;;;;;;5027918;28;21094;-78
2023/07/13 09:44:28;;;;;;;0.20;0.20;;;20.30;99.90;;;;;;5032087;28;20044;-79
2023/07/13 09:46:55;;;;;;;0.20;0.20;;;20.30;99.90;;;;;;5036460;28;20063;-79
2023/07/13 09:49:26;;;;;;;0.20;0.20;;;20.40;99.90;;;;;;5052360;28;20052;-81
2023/07/13 09:52:00;;;;;;;0.20;0.20;;;20.40;99.90;;;;;;5053631;28;20568;-81
2023/07/13 09:54:26;;;;;;;0.20;0.20;;;20.40;99.90;;;;;;5030901;28;20057;-80
2023/07/13 09:56:59;;;;;;;0.20;0.20;;;20.40;99.90;;;;;;5050385;28;20519;-80
2023/07/13 09:59:46;;;;;;;0.10;0.10;;;20.40;99.90;;;;;;5052990;28;20124;-80
2023/07/13 10:02:30;;;;;;;0.20;0.20;;;20.40;99.90;;;;;;5033921;28;20412;-79
2023/07/13 10:05:02;;;;;;;0.20;0.20;;;20.50;99.90;;;;;;5046275;28;20052;-80
2023/07/13 10:07:30;;;;;;;0.20;0.20;;;20.40;99.90;;;;;;5029784;28;20052;-80
2023/07/13 10:09:57;;;;;;;0.20;0.20;;;20.40;99.90;;;;;;5051730;28;20057;-79
2023/07/13 10:12:24;;;;;;;0.43;0.30;;;20.40;99.90;;;;;;5034602;28;20049;-80
2023/07/13 10:14:56;;;;;;;0.10;0.10;;;20.40;99.90;;;;;;5048682;28;20436;-79
2023/07/13 10:17:31;;;;;;;0.20;0.20;;;20.30;99.90;;;;;;5052116;28;20566;-79
2023/07/13 10:20:04;;;;;;;0.20;0.20;;;20.20;99.90;;;;;;5052678;28;20098;-80
2023/07/13 10:22:38;;;;;;;0.20;0.20;;;20.20;99.90;;;;;;5050454;28;20045;-80
2023/07/13 10:25:16;;;;;;;0.20;0.20;;;20.30;99.90;;;;;;5034518;28;20045;-79
2023/07/13 10:27:42;;;;;;;0.20;0.20;;;20.40;99.90;;;;;;5050445;28;20127;-80
2023/07/13 10:30:34;;;;;;;0.20;0.20;;;20.40;99.90;;;;;;5034619;28;20596;-79
2023/07/13 10:33:02;;;;;;;0.20;0.20;;;20.40;99.90;;;;;;5046155;28;20255;-81
2023/07/13 10:35:30;;;;;;;0.20;0.20;;;20.40;99.90;;;;;;5051421;28;20052;-80
2023/07/13 10:38:07;;;;;;;0.20;0.20;;;20.50;99.90;;;;;;5052538;28;20122;-80
2023/07/13 10:40:56;;;;;;;0.20;0.20;;;20.70;99.90;;;;;;5044475;28;20048;-80
2023/07/13 10:43:27;;;;;;;0.20;0.20;;;20.80;99.90;;;;;;5049322;28;20037;-80
2023/07/13 10:45:54;;;;;;;;;;;20.90;99.90;;;;;;5047412;28;20514;-80
2023/07/13 10:48:22;;;;;;;0.20;0.20;;;21.00;99.90;;;;;;5048733;28;19920;-80
2023/07/13 10:50:52;;;;;;;0.20;0.20;;;21.00;99.90;;;;;;5051195;28;20083;-79
2023/07/13 10:53:33;;;;;;;0.20;0.20;;;21.00;99.90;;;;;;5050181;28;20052;-80
2023/07/13 10:56:08;;;;;;;0.20;0.20;;;21.00;99.90;;;;;;5050641;28;20045;-80
2023/07/13 10:58:41;;;;;;;0.20;0.20;;;21.00;99.90;;;;;;5046427;28;20441;-79
2023/07/13 11:01:08;;;;;;;0.10;0.10;;;21.10;99.90;;;;;;5046907;28;20399;-80
2023/07/13 11:03:45;;;;;;;0.20;0.20;;;21.20;99.70;;;;;;5046938;28;20171;-79
2023/07/13 11:06:41;;;;;;;0.20;0.20;;;21.30;99.60;;;;;;5063824;28;20049;-78
2023/07/13 11:09:36;;;;;;;0.20;0.20;;;21.40;98.90;;;;;;5049870;28;20041;-79
2023/07/13 11:12:22;;;;;;;0.20;0.20;;;21.60;99.40;;;;;;5049491;28;20041;-80
2023/07/13 11:14:54;;;;;;;0.20;0.20;;;21.70;99.50;;;;;;5006096;28;20065;-81
2023/07/13 11:17:48;;;;;;;0.20;0.20;;;21.80;99.50;;;;;;5041956;28;20041;-80
2023/07/13 11:20:14;;;;;;;0.10;0.10;;;22.00;99.40;;;;;;5052207;28;20048;-79
2023/07/13 11:22:47;;;;;;;0.20;0.20;;;22.20;99.40;;;;;;5050175;28;20049;-79
2023/07/13 11:25:32;;;;;;;0.20;0.20;;;22.30;99.10;;;;;;5044703;28;20045;-79
2023/07/13 11:28:12;;;;;;;0.20;0.20;;;22.30;98.80;;;;;;5037862;28;20063;-78
2023/07/13 11:30:59;;;;;;;0.20;0.20;;;22.40;98.60;;;;;;5050907;28;20044;-77
2023/07/13 11:33:38;;;;;;;0.20;0.20;;;22.40;97.80;;;;;;5050668;28;20049;-78
2023/07/13 11:36:12;;;;;;;0.20;0.20;;;22.50;96.90;;;;;;5051145;28;20185;-79
2023/07/13 11:38:55;;;;;;;0.20;0.20;;;22.50;97.50;;;;;;5050282;28;20684;-78
2023/07/13 11:41:42;;;;;;;0.20;0.20;;;22.60;97.50;;;;;;5051936;28;20132;-79
2023/07/13 11:44:16;;;;;;;0.20;0.20;;;22.70;97.80;;;;;;5045993;28;20048;-79
2023/07/13 11:46:48;;;;;;;0.20;0.20;;;22.80;97.70;;;;;;5042764;28;20044;-79
2023/07/13 11:49:20;;;;;;;0.20;0.20;;;22.90;97.20;;;;;;5044191;28;20388;-80
2023/07/13 11:51:46;;;;;;;0.20;0.20;;;22.80;96.70;;;;;;5049464;28;20087;-78
2023/07/13 11:54:55;;;;;;;0.20;0.20;;;22.80;96.50;;;;;;5049223;28;20048;-78
2023/07/13 11:57:34;;;;;;;0.20;0.20;;;22.70;96.60;;;;;;5031480;28;20045;-79
2023/07/13 12:00:07;;;;;;;0.20;0.20;;;22.70;96.30;;;;;;5046593;28;20382;-79
2023/07/13 12:02:41;;;;;;;0.30;0.30;;;22.60;96.10;;;;;;5045010;28;20049;-80
2023/07/13 12:05:12;;;;;;;0.20;0.20;;;22.60;96.50;;;;;;5045815;28;20397;-79
2023/07/13 12:07:38;;;;;;;0.20;0.20;;;22.60;95.50;;;;;;5049681;28;20041;-80
2023/07/13 12:10:28;;;;;;;0.20;0.20;;;22.50;95.70;;;;;;5050288;28;20048;-79
2023/07/13 12:13:09;;;;;;;0.20;0.20;;;22.50;96.60;;;;;;5042803;28;20503;-79
2023/07/13 12:15:34;;;;;;;0.20;0.20;;;22.70;96.80;;;;;;5046604;28;20057;-79
2023/07/13 12:18:00;;;;;;;0.20;0.20;;;22.80;96.80;;;;;;5049796;28;20258;-80
2023/07/13 12:20:29;;;;;;;0.20;0.20;;;22.90;96.10;;;;;;5049883;28;20182;-79
2023/07/13 12:22:55;;;;;;;0.20;0.20;;;22.80;95.60;;;;;;5050663;28;20503;-79
2023/07/13 12:25:22;;;;;;;0.20;0.20;;;22.80;95.40;;;;;;5048415;28;20096;-80
2023/07/13 12:27:50;;;;;;;0.20;0.20;;;22.70;95.50;;;;;;5042705;28;20060;-79
2023/07/13 12:30:35;;;;;;;0.20;0.20;;;22.80;95.70;;;;;;5044373;28;20048;-79
2023/07/13 12:33:11;;;;;;;0.20;0.20;;;22.90;99.00;;;;;;5043292;28;20416;-79
2023/07/13 12:35:49;;;;;;;0.20;0.20;;;22.40;99.70;;;;;;5050385;28;20085;-81
2023/07/13 12:38:16;;;;;;;0.20;0.20;;;22.90;95.60;;;;;;5048280;28;20404;-80
2023/07/13 12:40:42;;;;;;;0.20;0.20;;;22.90;95.20;;;;;;5047145;28;20454;-80
2023/07/13 12:43:13;;;;;;;0.20;0.20;;;22.80;95.20;;;;;;5047305;28;20049;-78
2023/07/13 12:45:54;;;;;;;0.20;0.20;;;22.80;95.30;;;;;;5050269;28;20380;-78
2023/07/13 12:48:20;;;;;;;0.20;0.20;;;22.70;95.30;;;;;;5048786;28;20155;-79
2023/07/13 12:50:49;;;;;;;0.20;0.20;;;22.60;95.20;;;;;;5049496;28;20035;-78
2023/07/13 12:53:19;;;;;;;0.20;0.20;;;22.60;95.00;;;;;;5047765;28;20048;-77
2023/07/13 12:55:52;;;;;;;0.20;0.20;;;22.60;94.70;;;;;;5050590;28;20053;-78
2023/07/13 12:58:41;;;;;;;0.20;0.20;;;22.60;94.60;;;;;;5047294;28;20040;-78